Aviation Digital Data Service (ADDS)

Output produced by METARs form (0918 UTC 28 March 2020)
found at http://aviationweather.gov/metar/data/
 
KRYY 280850Z AUTO 22004KT 10SM CLR 19/17 A2996 RMK AO2 SLP867 T01890167 58005 $
KRYY 280533Z 2806/2906 20004KT P6SM SCT250 
     FM280900 21005KT P6SM BKN020 
     FM281100 22004KT P6SM SCT008 BKN012 
     FM281600 23007KT P6SM SCT025 BKN035 
     FM281900 23008KT P6SM SCT035 SCT250 
     FM290100 19004KT P6SM SCT250
       
KPUJ 280855Z AUTO 24005KT 7SM CLR 18/18 A2996 RMK AO2
KCNI 280850Z AUTO 00000KT 10SM CLR 16/14 A2998 RMK AO2
KPDK 280853Z 23008KT 10SM CLR 19/16 A2996 RMK AO2 SLP129 T01890161 58006
KPDK 280533Z 2806/2906 21004KT P6SM SCT250 
     FM280900 23006KT P6SM BKN020 
     FM281200 22004KT P6SM SCT008 BKN012 
     FM281600 23008KT P6SM SCT025 BKN035 
     FM281900 23009KT P6SM SCT035 SCT250 
     FM290100 20005KT P6SM FEW250
       
KRMG 280853Z AUTO 00000KT 6SM BR CLR 16/14 A2992 RMK AO2 SLP122 T01610144 58007
KATL 280852Z 23007KT 10SM SCT250 19/16 A2996 RMK AO2 SLP136 T01940161 58008
KATL 280732Z 2808/2912 23004KT P6SM BKN250 
     FM281000 23007KT P6SM BKN020 
     FM281100 23006KT P6SM SCT008 BKN012 
     FM281600 24008KT P6SM SCT015 BKN025 
     FM281900 23009KT P6SM SCT035 SCT250 
     FM290100 20006KT P6SM SCT250 
     FM290700 21009KT P6SM SCT012 
     FM290900 22009KT P6SM BKN008
       
KFFC 280853Z AUTO 00000KT 10SM CLR 20/18 A2997 RMK AO2 SLP141 T02000178 58009
KGAD 280856Z AUTO 19005KT 10SM CLR 18/17 A2993 RMK AO2 SLP133 T01780167 58009
KCHA 280853Z AUTO 17007KT 10SM CLR 21/17 A2990 RMK AO2 SLP115 T02110167 56012 $
KCHA 280520Z 2806/2906 20005KT P6SM BKN250 
     FM281000 00000KT P6SM SCT020 
     TEMPO 2811/2815 BKN020 
     FM281700 20010KT P6SM BKN040 
     FM290000 18003KT P6SM BKN035
       
KDNN 280855Z AUTO 15003KT 10SM CLR 20/15 A2994 RMK AO2
KAHN 280851Z AUTO 23003KT 10SM CLR 19/16 A2995 RMK AO2 SLP134 T01890156 58007
KAHN 280533Z 2806/2906 23004KT P6SM SCT250 
     FM281100 23005KT P6SM FEW008 BKN020 
     FM281400 24007KT P6SM BKN025 
     FM281700 25008KT P6SM SCT025 SCT040 
     FM290100 21004KT P6SM FEW250
       
KLZU 280856Z AUTO 24005KT 10SM CLR 18/17 A2996 RMK AO2 SLP147 T01780172 57007